San Jose Del Cabo, Mexico

9:31 AM MDT on May 22, 2015 (GMT -0600)
El Zacatal | | Change Station
CLOSE
Current Station
Personal Weather Station
Location: San Jose del Cabo, BAJA CALIFORNIA SUR
Elevation: 128 ft
Nearby Weather Stations

Elev 128 ft 23.10 °N, 109.71 °W | Updated 10 minutes ago

Scattered Clouds
Scattered Clouds
84.2 °F
Feels Like 83 °F
N
4.0
Wind Variable Wind from NE
Gusts 4.0 mph

Today
High -- | Low -- °F
--% Chance of Precip.
Yesterday
High -- | Low -- °F
Precip. -- in
6:34 AM 7:56 PM
Waxing Crescent, 22% visible
Pressure 29.99 in
Visibility 10.0 miles
Clouds Few 14000 ft
Scattered Clouds 22000 ft
Heat Index 83 °F
Dew Point 57 °F
Humidity 40%
Rainfall 0.00 in
Snow Depth Not available.
UV 2 out of 12
Pollen Not available.
Air Quality Not available.
Flu Activity Not available.
METAR MMSL 221449Z 30007KT 10SM FEW140 SCT220 28/06 A2999 RMK 8/038 MSGTX MMSD

More Conditions Fewer Conditions

Pressure 29.99 in
Visibility 10.0 miles
Clouds Few 14000 ft
Scattered Clouds 22000 ft
Heat Index 83 °F
Dew Point 57 °F
Humidity 40%
Rainfall 0.00 in
Snow Depth Not available.
UV 2 out of 12
Pollen Not available.
Air Quality Not available.
Flu Activity Not available.
METAR MMSL 221449Z 30007KT 10SM FEW140 SCT220 28/06 A2999 RMK 8/038 MSGTX MMSD

More Conditions Fewer Conditions

10-Day Weather Forecast

Almanac

Astronomy

May. 22, 2015 Rise Set
Actual Time
Civil Twilight
Nautical Twilight
Astronomical Twilight
Moon
Length of Visible Light
Length of Day
Tomorrow will be .
, % of the Moon is Illuminated

Today's Extremes

Country Highs Country Lows

Community

WunderPhotos

Upload Photos

1,823,244 photos uploaded!

WunderBlogs® & News

Nearby

Air Quality

  Air Quality AQ Index Pollutant
Not available.

Snow Depth

Station Depth Elevation

Earthquake Activity

City Distance Mag. Time & Date
Minimum magnitude displayed is 2.5.

Coastal Water Temperatures

Place Temperature

Stations

Nearby Weather Stations

Station Location Temp. Windchill Dew Point Humidity Wind Precip. Elev Updated Type